sensor_id;sensor_type;location;lat;lon;timestamp;P1;durP1;ratioP1;P2;durP2;ratioP2
6372;SDS011;3219;51.362;7.074;2023-03-01T00:01:16;10.90;;;8.77;;
6372;SDS011;3219;51.362;7.074;2023-03-01T00:03:45;13.43;;;8.88;;
6372;SDS011;3219;51.362;7.074;2023-03-01T00:06:13;13.48;;;8.57;;
6372;SDS011;3219;51.362;7.074;2023-03-01T00:08:41;15.15;;;8.77;;
6372;SDS011;3219;51.362;7.074;2023-03-01T00:11:08;14.70;;;8.93;;
6372;SDS011;3219;51.362;7.074;2023-03-01T00:13:38;14.40;;;8.65;;
6372;SDS011;3219;51.362;7.074;2023-03-01T00:16:06;13.43;;;9.27;;
6372;SDS011;3219;51.362;7.074;2023-03-01T00:18:33;11.88;;;9.40;;
6372;SDS011;3219;51.362;7.074;2023-03-01T00:21:00;11.43;;;9.30;;
6372;SDS011;3219;51.362;7.074;2023-03-01T00:23:29;16.30;;;9.63;;
6372;SDS011;3219;51.362;7.074;2023-03-01T00:25:55;10.75;;;9.25;;
6372;SDS011;3219;51.362;7.074;2023-03-01T00:28:22;11.52;;;9.40;;
6372;SDS011;3219;51.362;7.074;2023-03-01T00:30:49;13.75;;;8.65;;
6372;SDS011;3219;51.362;7.074;2023-03-01T00:33:16;12.82;;;9.43;;
6372;SDS011;3219;51.362;7.074;2023-03-01T00:35:43;11.13;;;9.20;;
6372;SDS011;3219;51.362;7.074;2023-03-01T00:38:09;11.45;;;9.05;;
6372;SDS011;3219;51.362;7.074;2023-03-01T00:40:38;13.95;;;10.00;;
6372;SDS011;3219;51.362;7.074;2023-03-01T00:43:04;12.10;;;9.20;;
6372;SDS011;3219;51.362;7.074;2023-03-01T00:45:32;13.55;;;9.55;;
6372;SDS011;3219;51.362;7.074;2023-03-01T00:47:59;11.18;;;8.95;;
6372;SDS011;3219;51.362;7.074;2023-03-01T00:50:26;11.10;;;9.48;;
6372;SDS011;3219;51.362;7.074;2023-03-01T00:52:53;13.70;;;9.95;;
6372;SDS011;3219;51.362;7.074;2023-03-01T00:55:20;17.50;;;9.68;;
6372;SDS011;3219;51.362;7.074;2023-03-01T00:57:48;12.10;;;9.15;;
6372;SDS011;3219;51.362;7.074;2023-03-01T01:00:15;14.95;;;9.48;;
6372;SDS011;3219;51.362;7.074;2023-03-01T01:02:42;12.85;;;10.27;;
6372;SDS011;3219;51.362;7.074;2023-03-01T01:05:09;15.98;;;9.57;;
6372;SDS011;3219;51.362;7.074;2023-03-01T01:07:36;16.80;;;9.98;;
6372;SDS011;3219;51.362;7.074;2023-03-01T01:10:03;16.52;;;10.18;;
6372;SDS011;3219;51.362;7.074;2023-03-01T01:12:31;14.35;;;9.77;;
6372;SDS011;3219;51.362;7.074;2023-03-01T01:14:59;11.73;;;9.85;;
6372;SDS011;3219;51.362;7.074;2023-03-01T01:17:26;13.25;;;9.73;;
6372;SDS011;3219;51.362;7.074;2023-03-01T01:19:53;13.88;;;9.43;;
6372;SDS011;3219;51.362;7.074;2023-03-01T01:22:19;16.08;;;9.77;;
6372;SDS011;3219;51.362;7.074;2023-03-01T01:24:46;10.63;;;9.05;;
6372;SDS011;3219;51.362;7.074;2023-03-01T01:27:13;14.70;;;10.98;;
6372;SDS011;3219;51.362;7.074;2023-03-01T01:29:39;16.58;;;9.52;;
6372;SDS011;3219;51.362;7.074;2023-03-01T01:32:08;12.65;;;9.23;;
6372;SDS011;3219;51.362;7.074;2023-03-01T01:34:35;14.13;;;9.80;;
6372;SDS011;3219;51.362;7.074;2023-03-01T01:37:01;10.77;;;9.32;;
6372;SDS011;3219;51.362;7.074;2023-03-01T01:39:28;12.88;;;10.05;;
6372;SDS011;3219;51.362;7.074;2023-03-01T01:41:55;11.48;;;9.35;;
6372;SDS011;3219;51.362;7.074;2023-03-01T01:44:23;14.80;;;10.15;;
6372;SDS011;3219;51.362;7.074;2023-03-01T01:46:52;16.83;;;10.30;;
6372;SDS011;3219;51.362;7.074;2023-03-01T01:49:27;13.35;;;9.45;;
6372;SDS011;3219;51.362;7.074;2023-03-01T01:52:00;14.75;;;10.35;;
6372;SDS011;3219;51.362;7.074;2023-03-01T01:54:34;15.05;;;9.77;;
6372;SDS011;3219;51.362;7.074;2023-03-01T01:57:09;14.18;;;11.35;;
6372;SDS011;3219;51.362;7.074;2023-03-01T01:59:39;14.23;;;10.57;;
6372;SDS011;3219;51.362;7.074;2023-03-01T02:02:09;16.40;;;11.35;;
6372;SDS011;3219;51.362;7.074;2023-03-01T02:04:37;15.65;;;11.13;;
6372;SDS011;3219;51.362;7.074;2023-03-01T02:07:06;16.60;;;11.18;;
6372;SDS011;3219;51.362;7.074;2023-03-01T02:09:39;12.57;;;10.30;;
6372;SDS011;3219;51.362;7.074;2023-03-01T02:12:08;14.23;;;11.13;;
6372;SDS011;3219;51.362;7.074;2023-03-01T02:14:35;15.45;;;10.52;;
6372;SDS011;3219;51.362;7.074;2023-03-01T02:17:01;19.80;;;11.48;;
6372;SDS011;3219;51.362;7.074;2023-03-01T02:19:31;14.38;;;10.60;;
6372;SDS011;3219;51.362;7.074;2023-03-01T02:22:11;15.57;;;11.77;;
6372;SDS011;3219;51.362;7.074;2023-03-01T02:24:45;17.08;;;10.68;;
6372;SDS011;3219;51.362;7.074;2023-03-01T02:27:23;17.33;;;11.77;;
6372;SDS011;3219;51.362;7.074;2023-03-01T02:29:56;16.42;;;12.40;;
6372;SDS011;3219;51.362;7.074;2023-03-01T02:32:23;14.27;;;11.63;;
6372;SDS011;3219;51.362;7.074;2023-03-01T02:34:51;14.27;;;11.05;;
6372;SDS011;3219;51.362;7.074;2023-03-01T02:37:19;16.13;;;11.80;;
6372;SDS011;3219;51.362;7.074;2023-03-01T02:39:50;19.52;;;11.55;;
6372;SDS011;3219;51.362;7.074;2023-03-01T02:42:23;15.65;;;11.80;;
6372;SDS011;3219;51.362;7.074;2023-03-01T02:44:56;15.95;;;11.50;;
6372;SDS011;3219;51.362;7.074;2023-03-01T02:47:22;15.77;;;11.68;;
6372;SDS011;3219;51.362;7.074;2023-03-01T02:49:49;15.52;;;11.50;;
6372;SDS011;3219;51.362;7.074;2023-03-01T02:52:20;15.55;;;11.38;;
6372;SDS011;3219;51.362;7.074;2023-03-01T02:55:03;16.13;;;11.10;;
6372;SDS011;3219;51.362;7.074;2023-03-01T02:57:34;15.50;;;12.23;;
6372;SDS011;3219;51.362;7.074;2023-03-01T03:00:06;16.20;;;11.48;;
6372;SDS011;3219;51.362;7.074;2023-03-01T03:02:35;17.08;;;11.95;;
6372;SDS011;3219;51.362;7.074;2023-03-01T03:05:03;16.20;;;11.55;;
6372;SDS011;3219;51.362;7.074;2023-03-01T03:07:33;16.05;;;12.25;;
6372;SDS011;3219;51.362;7.074;2023-03-01T03:10:02;14.98;;;12.00;;
6372;SDS011;3219;51.362;7.074;2023-03-01T03:12:30;16.92;;;12.05;;
6372;SDS011;3219;51.362;7.074;2023-03-01T03:14:57;15.30;;;11.27;;
6372;SDS011;3219;51.362;7.074;2023-03-01T03:17:25;15.45;;;12.10;;
6372;SDS011;3219;51.362;7.074;2023-03-01T03:19:52;14.95;;;11.82;;
6372;SDS011;3219;51.362;7.074;2023-03-01T03:22:19;15.63;;;11.32;;
6372;SDS011;3219;51.362;7.074;2023-03-01T03:24:46;18.25;;;11.65;;
6372;SDS011;3219;51.362;7.074;2023-03-01T03:27:13;17.95;;;11.85;;
6372;SDS011;3219;51.362;7.074;2023-03-01T03:29:40;15.63;;;12.07;;
6372;SDS011;3219;51.362;7.074;2023-03-01T03:32:07;17.48;;;12.45;;
6372;SDS011;3219;51.362;7.074;2023-03-01T03:34:35;15.05;;;11.60;;
6372;SDS011;3219;51.362;7.074;2023-03-01T03:37:02;15.30;;;11.45;;
6372;SDS011;3219;51.362;7.074;2023-03-01T03:39:49;16.50;;;12.02;;
6372;SDS011;3219;51.362;7.074;2023-03-01T03:42:19;17.75;;;13.55;;
6372;SDS011;3219;51.362;7.074;2023-03-01T03:44:46;18.10;;;12.18;;
6372;SDS011;3219;51.362;7.074;2023-03-01T03:47:13;17.70;;;12.95;;
6372;SDS011;3219;51.362;7.074;2023-03-01T03:49:41;19.38;;;12.52;;
6372;SDS011;3219;51.362;7.074;2023-03-01T03:52:08;16.05;;;12.45;;
6372;SDS011;3219;51.362;7.074;2023-03-01T03:54:38;14.90;;;11.85;;
6372;SDS011;3219;51.362;7.074;2023-03-01T03:57:05;15.98;;;12.55;;
6372;SDS011;3219;51.362;7.074;2023-03-01T03:59:32;14.90;;;12.02;;
6372;SDS011;3219;51.362;7.074;2023-03-01T04:01:59;16.90;;;12.15;;
6372;SDS011;3219;51.362;7.074;2023-03-01T04:04:25;17.05;;;12.18;;
6372;SDS011;3219;51.362;7.074;2023-03-01T04:06:53;17.90;;;12.77;;
6372;SDS011;3219;51.362;7.074;2023-03-01T04:09:20;22.52;;;13.90;;
6372;SDS011;3219;51.362;7.074;2023-03-01T04:11:47;18.70;;;13.82;;
6372;SDS011;3219;51.362;7.074;2023-03-01T04:14:13;21.40;;;14.15;;
6372;SDS011;3219;51.362;7.074;2023-03-01T04:16:40;21.20;;;13.98;;
6372;SDS011;3219;51.362;7.074;2023-03-01T04:19:07;19.00;;;13.10;;
6372;SDS011;3219;51.362;7.074;2023-03-01T04:21:34;17.83;;;13.65;;
6372;SDS011;3219;51.362;7.074;2023-03-01T04:24:03;17.67;;;13.38;;
6372;SDS011;3219;51.362;7.074;2023-03-01T04:26:31;18.13;;;13.52;;
6372;SDS011;3219;51.362;7.074;2023-03-01T04:28:58;16.63;;;13.00;;
6372;SDS011;3219;51.362;7.074;2023-03-01T04:31:25;17.75;;;13.93;;
6372;SDS011;3219;51.362;7.074;2023-03-01T04:33:52;19.98;;;14.07;;
6372;SDS011;3219;51.362;7.074;2023-03-01T04:36:21;18.10;;;14.55;;
6372;SDS011;3219;51.362;7.074;2023-03-01T04:38:49;18.95;;;14.63;;
6372;SDS011;3219;51.362;7.074;2023-03-01T04:41:19;19.48;;;14.75;;
6372;SDS011;3219;51.362;7.074;2023-03-01T04:43:47;21.35;;;14.77;;
6372;SDS011;3219;51.362;7.074;2023-03-01T04:46:15;21.08;;;14.95;;
6372;SDS011;3219;51.362;7.074;2023-03-01T04:48:43;19.95;;;14.65;;
6372;SDS011;3219;51.362;7.074;2023-03-01T04:51:11;22.00;;;14.25;;
6372;SDS011;3219;51.362;7.074;2023-03-01T04:53:39;19.70;;;14.15;;
6372;SDS011;3219;51.362;7.074;2023-03-01T04:56:06;19.80;;;14.43;;
6372;SDS011;3219;51.362;7.074;2023-03-01T04:58:34;17.67;;;13.88;;
6372;SDS011;3219;51.362;7.074;2023-03-01T05:01:08;21.08;;;13.90;;
6372;SDS011;3219;51.362;7.074;2023-03-01T05:03:40;21.95;;;16.33;;
6372;SDS011;3219;51.362;7.074;2023-03-01T05:06:07;20.50;;;14.80;;
6372;SDS011;3219;51.362;7.074;2023-03-01T05:08:34;25.67;;;15.43;;
6372;SDS011;3219;51.362;7.074;2023-03-01T05:11:03;18.38;;;14.35;;
6372;SDS011;3219;51.362;7.074;2023-03-01T05:13:29;17.55;;;13.82;;
6372;SDS011;3219;51.362;7.074;2023-03-01T05:15:59;20.45;;;13.52;;
6372;SDS011;3219;51.362;7.074;2023-03-01T05:18:27;18.13;;;14.35;;
6372;SDS011;3219;51.362;7.074;2023-03-01T05:20:55;22.15;;;14.40;;
6372;SDS011;3219;51.362;7.074;2023-03-01T05:23:29;17.50;;;14.57;;
6372;SDS011;3219;51.362;7.074;2023-03-01T05:25:57;20.73;;;13.77;;
6372;SDS011;3219;51.362;7.074;2023-03-01T05:28:25;16.42;;;14.48;;
6372;SDS011;3219;51.362;7.074;2023-03-01T05:30:53;22.17;;;15.80;;
6372;SDS011;3219;51.362;7.074;2023-03-01T05:33:21;18.48;;;14.80;;
6372;SDS011;3219;51.362;7.074;2023-03-01T05:35:48;24.58;;;14.75;;
6372;SDS011;3219;51.362;7.074;2023-03-01T05:38:17;22.70;;;15.30;;
6372;SDS011;3219;51.362;7.074;2023-03-01T05:40:45;19.88;;;15.07;;
6372;SDS011;3219;51.362;7.074;2023-03-01T05:43:13;22.95;;;15.60;;
6372;SDS011;3219;51.362;7.074;2023-03-01T05:45:41;17.90;;;14.82;;
6372;SDS011;3219;51.362;7.074;2023-03-01T05:48:08;20.80;;;15.18;;
6372;SDS011;3219;51.362;7.074;2023-03-01T05:50:38;17.90;;;15.38;;
6372;SDS011;3219;51.362;7.074;2023-03-01T05:53:06;21.23;;;15.73;;
6372;SDS011;3219;51.362;7.074;2023-03-01T05:55:36;20.35;;;15.68;;
6372;SDS011;3219;51.362;7.074;2023-03-01T05:58:04;21.75;;;15.30;;
6372;SDS011;3219;51.362;7.074;2023-03-01T06:00:32;20.77;;;15.23;;
6372;SDS011;3219;51.362;7.074;2023-03-01T06:03:00;17.83;;;14.88;;
6372;SDS011;3219;51.362;7.074;2023-03-01T06:05:27;20.63;;;14.90;;
6372;SDS011;3219;51.362;7.074;2023-03-01T06:07:57;18.67;;;14.50;;
6372;SDS011;3219;51.362;7.074;2023-03-01T06:10:25;20.30;;;15.32;;
6372;SDS011;3219;51.362;7.074;2023-03-01T06:12:52;20.98;;;15.30;;
6372;SDS011;3219;51.362;7.074;2023-03-01T06:15:19;21.33;;;15.15;;
6372;SDS011;3219;51.362;7.074;2023-03-01T06:17:46;18.25;;;14.57;;
6372;SDS011;3219;51.362;7.074;2023-03-01T06:20:14;18.83;;;15.25;;
6372;SDS011;3219;51.362;7.074;2023-03-01T06:22:43;20.13;;;15.68;;
6372;SDS011;3219;51.362;7.074;2023-03-01T06:25:13;17.58;;;15.32;;
6372;SDS011;3219;51.362;7.074;2023-03-01T06:27:42;21.80;;;14.77;;
6372;SDS011;3219;51.362;7.074;2023-03-01T06:30:09;20.33;;;15.68;;
6372;SDS011;3219;51.362;7.074;2023-03-01T06:32:38;18.38;;;13.88;;
6372;SDS011;3219;51.362;7.074;2023-03-01T06:35:07;15.85;;;13.98;;
6372;SDS011;3219;51.362;7.074;2023-03-01T06:37:34;17.50;;;14.88;;
6372;SDS011;3219;51.362;7.074;2023-03-01T06:40:01;20.63;;;14.68;;
6372;SDS011;3219;51.362;7.074;2023-03-01T06:42:33;17.67;;;14.35;;
6372;SDS011;3219;51.362;7.074;2023-03-01T06:45:00;18.27;;;14.50;;
6372;SDS011;3219;51.362;7.074;2023-03-01T06:47:27;17.38;;;13.68;;
6372;SDS011;3219;51.362;7.074;2023-03-01T06:49:53;17.45;;;14.23;;
6372;SDS011;3219;51.362;7.074;2023-03-01T06:52:20;18.85;;;14.88;;
6372;SDS011;3219;51.362;7.074;2023-03-01T06:54:47;19.08;;;14.18;;
6372;SDS011;3219;51.362;7.074;2023-03-01T06:57:13;18.55;;;14.52;;
6372;SDS011;3219;51.362;7.074;2023-03-01T06:59:41;18.58;;;13.40;;
6372;SDS011;3219;51.362;7.074;2023-03-01T07:02:09;17.17;;;13.23;;
6372;SDS011;3219;51.362;7.074;2023-03-01T07:04:36;15.38;;;13.50;;
6372;SDS011;3219;51.362;7.074;2023-03-01T07:07:03;17.45;;;14.13;;
6372;SDS011;3219;51.362;7.074;2023-03-01T07:09:29;19.88;;;13.98;;
6372;SDS011;3219;51.362;7.074;2023-03-01T07:11:56;19.60;;;13.85;;
6372;SDS011;3219;51.362;7.074;2023-03-01T07:14:23;16.50;;;13.20;;
6372;SDS011;3219;51.362;7.074;2023-03-01T07:16:52;17.73;;;12.73;;
6372;SDS011;3219;51.362;7.074;2023-03-01T07:19:19;18.85;;;13.73;;
6372;SDS011;3219;51.362;7.074;2023-03-01T07:21:46;19.20;;;13.35;;
6372;SDS011;3219;51.362;7.074;2023-03-01T07:24:12;17.73;;;12.50;;
6372;SDS011;3219;51.362;7.074;2023-03-01T07:26:39;15.50;;;12.73;;
6372;SDS011;3219;51.362;7.074;2023-03-01T07:29:06;19.13;;;13.68;;
6372;SDS011;3219;51.362;7.074;2023-03-01T07:31:35;18.70;;;12.75;;
6372;SDS011;3219;51.362;7.074;2023-03-01T07:34:03;15.82;;;12.90;;
6372;SDS011;3219;51.362;7.074;2023-03-01T07:36:30;17.70;;;13.10;;
6372;SDS011;3219;51.362;7.074;2023-03-01T07:38:57;17.05;;;12.30;;
6372;SDS011;3219;51.362;7.074;2023-03-01T07:41:23;15.73;;;12.82;;
6372;SDS011;3219;51.362;7.074;2023-03-01T07:43:50;18.98;;;13.15;;
6372;SDS011;3219;51.362;7.074;2023-03-01T07:46:17;16.00;;;12.38;;
6372;SDS011;3219;51.362;7.074;2023-03-01T07:48:44;15.85;;;12.65;;
6372;SDS011;3219;51.362;7.074;2023-03-01T07:51:12;14.98;;;11.68;;
6372;SDS011;3219;51.362;7.074;2023-03-01T07:53:39;16.95;;;12.95;;
6372;SDS011;3219;51.362;7.074;2023-03-01T07:56:07;13.80;;;12.07;;
6372;SDS011;3219;51.362;7.074;2023-03-01T07:58:35;16.50;;;12.07;;
6372;SDS011;3219;51.362;7.074;2023-03-01T08:01:03;21.65;;;12.43;;
6372;SDS011;3219;51.362;7.074;2023-03-01T08:03:31;15.70;;;12.25;;
6372;SDS011;3219;51.362;7.074;2023-03-01T08:05:58;14.75;;;11.50;;
6372;SDS011;3219;51.362;7.074;2023-03-01T08:08:27;17.38;;;12.02;;
6372;SDS011;3219;51.362;7.074;2023-03-01T08:10:56;15.00;;;11.90;;
6372;SDS011;3219;51.362;7.074;2023-03-01T08:13:23;14.70;;;11.93;;
6372;SDS011;3219;51.362;7.074;2023-03-01T08:15:50;17.13;;;12.27;;
6372;SDS011;3219;51.362;7.074;2023-03-01T08:18:18;16.42;;;11.50;;
6372;SDS011;3219;51.362;7.074;2023-03-01T08:20:45;14.98;;;10.82;;
6372;SDS011;3219;51.362;7.074;2023-03-01T08:23:12;13.77;;;11.13;;
6372;SDS011;3219;51.362;7.074;2023-03-01T08:25:40;16.13;;;11.82;;
6372;SDS011;3219;51.362;7.074;2023-03-01T08:28:07;12.00;;;9.63;;
6372;SDS011;3219;51.362;7.074;2023-03-01T08:30:34;14.32;;;11.00;;
6372;SDS011;3219;51.362;7.074;2023-03-01T08:33:01;13.40;;;10.18;;
6372;SDS011;3219;51.362;7.074;2023-03-01T08:35:27;14.52;;;10.68;;
6372;SDS011;3219;51.362;7.074;2023-03-01T08:37:54;13.85;;;9.77;;
6372;SDS011;3219;51.362;7.074;2023-03-01T08:40:21;11.00;;;9.80;;
6372;SDS011;3219;51.362;7.074;2023-03-01T08:42:49;13.68;;;9.95;;
6372;SDS011;3219;51.362;7.074;2023-03-01T08:45:16;11.15;;;9.75;;
6372;SDS011;3219;51.362;7.074;2023-03-01T08:47:43;13.07;;;10.02;;
6372;SDS011;3219;51.362;7.074;2023-03-01T08:50:10;15.13;;;11.18;;
6372;SDS011;3219;51.362;7.074;2023-03-01T08:52:37;12.25;;;10.23;;
6372;SDS011;3219;51.362;7.074;2023-03-01T08:55:04;13.02;;;10.63;;
6372;SDS011;3219;51.362;7.074;2023-03-01T08:57:32;13.95;;;10.52;;
6372;SDS011;3219;51.362;7.074;2023-03-01T09:00:00;21.40;;;10.73;;
6372;SDS011;3219;51.362;7.074;2023-03-01T09:02:28;13.85;;;10.38;;
6372;SDS011;3219;51.362;7.074;2023-03-01T09:04:55;15.00;;;10.32;;
6372;SDS011;3219;51.362;7.074;2023-03-01T09:07:21;14.55;;;10.68;;
6372;SDS011;3219;51.362;7.074;2023-03-01T09:09:53;15.55;;;10.93;;
6372;SDS011;3219;51.362;7.074;2023-03-01T09:12:20;12.40;;;9.93;;
6372;SDS011;3219;51.362;7.074;2023-03-01T09:14:47;15.10;;;10.20;;
6372;SDS011;3219;51.362;7.074;2023-03-01T09:17:15;13.27;;;10.80;;
6372;SDS011;3219;51.362;7.074;2023-03-01T09:19:42;14.02;;;10.55;;
6372;SDS011;3219;51.362;7.074;2023-03-01T09:22:08;14.80;;;11.10;;
6372;SDS011;3219;51.362;7.074;2023-03-01T09:24:35;14.20;;;10.75;;
6372;SDS011;3219;51.362;7.074;2023-03-01T09:27:02;15.70;;;10.52;;
6372;SDS011;3219;51.362;7.074;2023-03-01T09:29:33;14.68;;;9.90;;
6372;SDS011;3219;51.362;7.074;2023-03-01T09:32:00;13.52;;;10.85;;
6372;SDS011;3219;51.362;7.074;2023-03-01T09:34:29;16.67;;;11.73;;
6372;SDS011;3219;51.362;7.074;2023-03-01T09:36:57;16.92;;;10.85;;
6372;SDS011;3219;51.362;7.074;2023-03-01T09:39:27;17.08;;;11.45;;
6372;SDS011;3219;51.362;7.074;2023-03-01T09:41:55;14.73;;;9.63;;
6372;SDS011;3219;51.362;7.074;2023-03-01T09:44:28;14.43;;;10.95;;
6372;SDS011;3219;51.362;7.074;2023-03-01T09:47:00;15.30;;;10.57;;
6372;SDS011;3219;51.362;7.074;2023-03-01T09:49:29;14.27;;;10.25;;
6372;SDS011;3219;51.362;7.074;2023-03-01T09:52:00;18.87;;;10.40;;
6372;SDS011;3219;51.362;7.074;2023-03-01T09:54:33;15.02;;;9.95;;
6372;SDS011;3219;51.362;7.074;2023-03-01T09:57:04;14.77;;;10.43;;
6372;SDS011;3219;51.362;7.074;2023-03-01T09:59:39;13.35;;;10.18;;
6372;SDS011;3219;51.362;7.074;2023-03-01T10:02:21;15.40;;;9.85;;
6372;SDS011;3219;51.362;7.074;2023-03-01T10:04:54;13.55;;;10.27;;
6372;SDS011;3219;51.362;7.074;2023-03-01T10:07:32;16.48;;;10.32;;
6372;SDS011;3219;51.362;7.074;2023-03-01T10:10:08;13.60;;;10.52;;
6372;SDS011;3219;51.362;7.074;2023-03-01T10:12:42;13.38;;;9.65;;
6372;SDS011;3219;51.362;7.074;2023-03-01T10:15:11;13.93;;;9.98;;
6372;SDS011;3219;51.362;7.074;2023-03-01T10:17:41;11.93;;;9.48;;
6372;SDS011;3219;51.362;7.074;2023-03-01T10:20:18;12.57;;;9.35;;
6372;SDS011;3219;51.362;7.074;2023-03-01T10:22:46;14.40;;;9.43;;
6372;SDS011;3219;51.362;7.074;2023-03-01T10:25:20;15.02;;;8.98;;
6372;SDS011;3219;51.362;7.074;2023-03-01T10:27:55;12.65;;;8.75;;
6372;SDS011;3219;51.362;7.074;2023-03-01T10:30:29;12.88;;;8.90;;
6372;SDS011;3219;51.362;7.074;2023-03-01T10:33:01;15.45;;;9.05;;
6372;SDS011;3219;51.362;7.074;2023-03-01T10:35:32;12.20;;;9.27;;
6372;SDS011;3219;51.362;7.074;2023-03-01T10:38:04;11.75;;;8.93;;
6372;SDS011;3219;51.362;7.074;2023-03-01T10:43:01;12.23;;;8.50;;
6372;SDS011;3219;51.362;7.074;2023-03-01T10:45:30;14.27;;;8.65;;
6372;SDS011;3219;51.362;7.074;2023-03-01T10:48:03;12.57;;;8.32;;
6372;SDS011;3219;51.362;7.074;2023-03-01T10:50:39;12.52;;;8.90;;
6372;SDS011;3219;51.362;7.074;2023-03-01T10:53:09;11.95;;;9.00;;
6372;SDS011;3219;51.362;7.074;2023-03-01T10:55:47;11.25;;;7.70;;
6372;SDS011;3219;51.362;7.074;2023-03-01T10:58:22;12.68;;;8.38;;
6372;SDS011;3219;51.362;7.074;2023-03-01T11:00:49;13.45;;;9.10;;
6372;SDS011;3219;51.362;7.074;2023-03-01T11:03:18;13.70;;;8.40;;
6372;SDS011;3219;51.362;7.074;2023-03-01T11:05:54;14.02;;;9.30;;
6372;SDS011;3219;51.362;7.074;2023-03-01T11:08:29;13.00;;;8.63;;
6372;SDS011;3219;51.362;7.074;2023-03-01T11:11:12;11.50;;;8.85;;
6372;SDS011;3219;51.362;7.074;2023-03-01T11:21:23;11.40;;;8.65;;
6372;SDS011;3219;51.362;7.074;2023-03-01T11:23:52;11.63;;;9.07;;
6372;SDS011;3219;51.362;7.074;2023-03-01T11:26:19;10.88;;;8.73;;
6372;SDS011;3219;51.362;7.074;2023-03-01T11:28:48;11.32;;;8.57;;
6372;SDS011;3219;51.362;7.074;2023-03-01T11:33:46;10.75;;;8.57;;
6372;SDS011;3219;51.362;7.074;2023-03-01T11:36:19;15.60;;;9.15;;
6372;SDS011;3219;51.362;7.074;2023-03-01T11:38:54;14.30;;;8.80;;
6372;SDS011;3219;51.362;7.074;2023-03-01T11:41:23;12.57;;;9.07;;
6372;SDS011;3219;51.362;7.074;2023-03-01T11:43:53;12.93;;;8.55;;
6372;SDS011;3219;51.362;7.074;2023-03-01T11:52:25;12.63;;;9.18;;
6372;SDS011;3219;51.362;7.074;2023-03-01T11:55:05;14.18;;;8.90;;
6372;SDS011;3219;51.362;7.074;2023-03-01T11:57:53;12.95;;;9.00;;
6372;SDS011;3219;51.362;7.074;2023-03-01T12:06:32;11.90;;;8.85;;
6372;SDS011;3219;51.362;7.074;2023-03-01T12:09:16;14.63;;;9.02;;
6372;SDS011;3219;51.362;7.074;2023-03-01T12:11:53;13.52;;;9.32;;
6372;SDS011;3219;51.362;7.074;2023-03-01T12:14:38;14.55;;;9.07;;
6372;SDS011;3219;51.362;7.074;2023-03-01T12:17:28;15.95;;;9.18;;
6372;SDS011;3219;51.362;7.074;2023-03-01T12:20:13;11.07;;;8.73;;
6372;SDS011;3219;51.362;7.074;2023-03-01T12:22:50;12.55;;;8.93;;
6372;SDS011;3219;51.362;7.074;2023-03-01T12:25:53;13.35;;;9.32;;
6372;SDS011;3219;51.362;7.074;2023-03-01T12:28:31;12.10;;;8.32;;
6372;SDS011;3219;51.362;7.074;2023-03-01T12:37:24;15.98;;;8.93;;
6372;SDS011;3219;51.362;7.074;2023-03-01T12:39:59;17.23;;;9.52;;
6372;SDS011;3219;51.362;7.074;2023-03-01T12:42:41;12.63;;;9.60;;
6372;SDS011;3219;51.362;7.074;2023-03-01T12:45:29;12.30;;;8.77;;
6372;SDS011;3219;51.362;7.074;2023-03-01T12:48:14;14.02;;;8.75;;
6372;SDS011;3219;51.362;7.074;2023-03-01T12:50:51;11.13;;;9.18;;
6372;SDS011;3219;51.362;7.074;2023-03-01T12:53:21;11.05;;;8.73;;
6372;SDS011;3219;51.362;7.074;2023-03-01T12:55:50;11.57;;;8.73;;
6372;SDS011;3219;51.362;7.074;2023-03-01T12:58:24;13.55;;;9.02;;
6372;SDS011;3219;51.362;7.074;2023-03-01T13:00:59;12.43;;;8.55;;
6372;SDS011;3219;51.362;7.074;2023-03-01T13:03:32;12.32;;;9.35;;
6372;SDS011;3219;51.362;7.074;2023-03-01T13:06:10;14.18;;;8.35;;
6372;SDS011;3219;51.362;7.074;2023-03-01T13:08:42;11.30;;;8.55;;
6372;SDS011;3219;51.362;7.074;2023-03-01T13:11:15;10.57;;;8.70;;
6372;SDS011;3219;51.362;7.074;2023-03-01T13:13:45;12.18;;;8.75;;
6372;SDS011;3219;51.362;7.074;2023-03-01T13:16:21;11.95;;;9.32;;
6372;SDS011;3219;51.362;7.074;2023-03-01T13:19:06;13.65;;;8.85;;
6372;SDS011;3219;51.362;7.074;2023-03-01T13:21:38;9.60;;;8.07;;
6372;SDS011;3219;51.362;7.074;2023-03-01T13:24:22;13.27;;;9.02;;
6372;SDS011;3219;51.362;7.074;2023-03-01T13:27:09;17.27;;;8.88;;
6372;SDS011;3219;51.362;7.074;2023-03-01T13:29:44;11.85;;;9.32;;
6372;SDS011;3219;51.362;7.074;2023-03-01T13:32:18;14.07;;;9.48;;
6372;SDS011;3219;51.362;7.074;2023-03-01T13:43:25;17.95;;;8.85;;
6372;SDS011;3219;51.362;7.074;2023-03-01T13:45:56;13.75;;;9.70;;
6372;SDS011;3219;51.362;7.074;2023-03-01T13:48:25;16.52;;;9.48;;
6372;SDS011;3219;51.362;7.074;2023-03-01T13:50:54;14.25;;;8.98;;
6372;SDS011;3219;51.362;7.074;2023-03-01T13:53:25;13.15;;;8.25;;
6372;SDS011;3219;51.362;7.074;2023-03-01T13:55:56;12.63;;;8.82;;
6372;SDS011;3219;51.362;7.074;2023-03-01T13:58:27;11.00;;;8.85;;
6372;SDS011;3219;51.362;7.074;2023-03-01T14:00:57;10.30;;;8.55;;
6372;SDS011;3219;51.362;7.074;2023-03-01T14:03:26;13.88;;;8.68;;
6372;SDS011;3219;51.362;7.074;2023-03-01T14:05:59;12.48;;;8.00;;
6372;SDS011;3219;51.362;7.074;2023-03-01T14:08:28;13.77;;;8.70;;
6372;SDS011;3219;51.362;7.074;2023-03-01T14:11:07;11.90;;;8.05;;
6372;SDS011;3219;51.362;7.074;2023-03-01T14:17:00;11.60;;;8.88;;
6372;SDS011;3219;51.362;7.074;2023-03-01T14:19:35;14.38;;;8.73;;
6372;SDS011;3219;51.362;7.074;2023-03-01T14:22:04;9.90;;;8.05;;
6372;SDS011;3219;51.362;7.074;2023-03-01T14:24:50;12.73;;;8.75;;
6372;SDS011;3219;51.362;7.074;2023-03-01T14:27:19;10.15;;;8.35;;
6372;SDS011;3219;51.362;7.074;2023-03-01T14:29:54;11.98;;;8.57;;
6372;SDS011;3219;51.362;7.074;2023-03-01T14:32:24;14.48;;;8.65;;
6372;SDS011;3219;51.362;7.074;2023-03-01T14:34:52;11.95;;;8.95;;
6372;SDS011;3219;51.362;7.074;2023-03-01T14:37:21;12.18;;;8.45;;
6372;SDS011;3219;51.362;7.074;2023-03-01T14:39:50;14.38;;;8.82;;
6372;SDS011;3219;51.362;7.074;2023-03-01T14:42:17;11.52;;;8.80;;
6372;SDS011;3219;51.362;7.074;2023-03-01T14:44:47;9.32;;;7.60;;
6372;SDS011;3219;51.362;7.074;2023-03-01T14:47:17;10.68;;;8.45;;
6372;SDS011;3219;51.362;7.074;2023-03-01T14:49:53;10.90;;;8.57;;
6372;SDS011;3219;51.362;7.074;2023-03-01T14:52:24;14.25;;;9.00;;
6372;SDS011;3219;51.362;7.074;2023-03-01T14:54:59;10.25;;;8.30;;
6372;SDS011;3219;51.362;7.074;2023-03-01T14:57:26;12.63;;;8.23;;
6372;SDS011;3219;51.362;7.074;2023-03-01T14:59:54;11.50;;;7.88;;
6372;SDS011;3219;51.362;7.074;2023-03-01T15:02:25;10.27;;;7.70;;
6372;SDS011;3219;51.362;7.074;2023-03-01T15:04:55;8.80;;;7.05;;
6372;SDS011;3219;51.362;7.074;2023-03-01T15:07:26;12.73;;;7.90;;
6372;SDS011;3219;51.362;7.074;2023-03-01T15:09:56;9.15;;;7.00;;
6372;SDS011;3219;51.362;7.074;2023-03-01T15:12:25;11.57;;;6.97;;
6372;SDS011;3219;51.362;7.074;2023-03-01T15:15:00;10.85;;;7.32;;
6372;SDS011;3219;51.362;7.074;2023-03-01T15:17:48;9.25;;;7.20;;
6372;SDS011;3219;51.362;7.074;2023-03-01T15:20:20;10.07;;;7.25;;
6372;SDS011;3219;51.362;7.074;2023-03-01T15:22:50;11.48;;;7.03;;
6372;SDS011;3219;51.362;7.074;2023-03-01T15:25:18;9.10;;;7.35;;
6372;SDS011;3219;51.362;7.074;2023-03-01T15:27:47;10.38;;;7.97;;
6372;SDS011;3219;51.362;7.074;2023-03-01T15:30:17;10.23;;;7.47;;
6372;SDS011;3219;51.362;7.074;2023-03-01T15:32:48;12.80;;;7.30;;
6372;SDS011;3219;51.362;7.074;2023-03-01T15:35:46;10.57;;;6.90;;
6372;SDS011;3219;51.362;7.074;2023-03-01T15:41:19;10.80;;;7.32;;
6372;SDS011;3219;51.362;7.074;2023-03-01T15:43:49;10.23;;;7.53;;
6372;SDS011;3219;51.362;7.074;2023-03-01T15:46:20;11.05;;;6.97;;
6372;SDS011;3219;51.362;7.074;2023-03-01T15:48:50;9.13;;;7.20;;
6372;SDS011;3219;51.362;7.074;2023-03-01T15:51:27;10.07;;;7.40;;
6372;SDS011;3219;51.362;7.074;2023-03-01T15:53:55;9.88;;;7.45;;
6372;SDS011;3219;51.362;7.074;2023-03-01T15:56:24;9.90;;;7.28;;
6372;SDS011;3219;51.362;7.074;2023-03-01T15:58:51;10.15;;;7.57;;